sensor_id;sensor_type;location;lat;lon;timestamp;pressure;altitude;pressure_sealevel;temperature;humidity
38939;BME280;24211;49.980;19.776;2022-07-29T00:01:42;99556.03;;;20.13;50.13
38939;BME280;24211;49.980;19.776;2022-07-29T00:04:10;99552.78;;;20.11;50.19
38939;BME280;24211;49.980;19.776;2022-07-29T00:06:37;99555.50;;;20.11;50.06
38939;BME280;24211;49.980;19.776;2022-07-29T00:09:05;99548.44;;;20.10;50.16
38939;BME280;24211;49.980;19.776;2022-07-29T00:11:32;99551.16;;;20.10;49.71
38939;BME280;24211;49.980;19.776;2022-07-29T00:14:00;99553.66;;;20.06;50.31
38939;BME280;24211;49.980;19.776;2022-07-29T00:16:28;99554.50;;;19.97;50.37
38939;BME280;24211;49.980;19.776;2022-07-29T00:18:55;99546.38;;;19.97;50.30
38939;BME280;24211;49.980;19.776;2022-07-29T00:21:27;99548.00;;;19.93;50.58
38939;BME280;24211;49.980;19.776;2022-07-29T00:23:55;99554.03;;;19.90;50.58
38939;BME280;24211;49.980;19.776;2022-07-29T00:26:22;99555.38;;;19.87;50.64
38939;BME280;24211;49.980;19.776;2022-07-29T00:28:49;99556.50;;;19.81;50.87
38939;BME280;24211;49.980;19.776;2022-07-29T00:31:16;99555.69;;;19.76;51.21
38939;BME280;24211;49.980;19.776;2022-07-29T00:33:44;99548.69;;;19.70;52.01
38939;BME280;24211;49.980;19.776;2022-07-29T00:36:11;99556.00;;;19.69;51.69
38939;BME280;24211;49.980;19.776;2022-07-29T00:38:38;99560.34;;;19.70;51.52
38939;BME280;24211;49.980;19.776;2022-07-29T00:41:08;99551.97;;;19.62;52.26
38939;BME280;24211;49.980;19.776;2022-07-29T00:43:35;99551.47;;;19.54;52.37
38939;BME280;24211;49.980;19.776;2022-07-29T00:46:03;99553.13;;;19.50;52.14
38939;BME280;24211;49.980;19.776;2022-07-29T00:48:30;99548.47;;;19.56;51.64
38939;BME280;24211;49.980;19.776;2022-07-29T00:50:59;99556.88;;;19.54;51.73
38939;BME280;24211;49.980;19.776;2022-07-29T00:53:30;99562.03;;;19.51;51.98
38939;BME280;24211;49.980;19.776;2022-07-29T00:55:58;99555.03;;;19.40;52.54
38939;BME280;24211;49.980;19.776;2022-07-29T00:58:26;99549.34;;;19.36;52.20
38939;BME280;24211;49.980;19.776;2022-07-29T01:00:54;99549.91;;;19.23;53.06
38939;BME280;24211;49.980;19.776;2022-07-29T01:03:21;99546.69;;;19.21;53.43
38939;BME280;24211;49.980;19.776;2022-07-29T01:05:49;99542.88;;;19.17;53.24
38939;BME280;24211;49.980;19.776;2022-07-29T01:08:19;99544.50;;;19.18;53.76
38939;BME280;24211;49.980;19.776;2022-07-29T01:10:47;99542.88;;;19.12;53.81
38939;BME280;24211;49.980;19.776;2022-07-29T01:13:16;99536.91;;;19.15;53.25
38939;BME280;24211;49.980;19.776;2022-07-29T01:15:53;99547.19;;;19.28;52.66
38939;BME280;24211;49.980;19.776;2022-07-29T01:18:30;99545.56;;;19.27;52.49
38939;BME280;24211;49.980;19.776;2022-07-29T01:21:38;99536.66;;;19.12;53.73
38939;BME280;24211;49.980;19.776;2022-07-29T01:24:39;99538.28;;;19.13;52.91
38939;BME280;24211;49.980;19.776;2022-07-29T01:30:16;99536.69;;;19.02;53.26
38939;BME280;24211;49.980;19.776;2022-07-29T01:32:49;99535.34;;;18.94;53.83
38939;BME280;24211;49.980;19.776;2022-07-29T01:35:39;99541.84;;;18.98;53.45
38939;BME280;24211;49.980;19.776;2022-07-29T01:42:44;99539.69;;;18.90;53.37
38939;BME280;24211;49.980;19.776;2022-07-29T01:45:20;99541.03;;;18.77;54.70
38939;BME280;24211;49.980;19.776;2022-07-29T01:51:21;99528.91;;;18.60;55.18
38939;BME280;24211;49.980;19.776;2022-07-29T01:56:53;99531.03;;;18.58;54.84
38939;BME280;24211;49.980;19.776;2022-07-29T01:59:25;99527.25;;;18.59;54.59
38939;BME280;24211;49.980;19.776;2022-07-29T02:01:57;99532.69;;;18.64;54.05
38939;BME280;24211;49.980;19.776;2022-07-29T02:04:28;99530.50;;;18.61;54.26
38939;BME280;24211;49.980;19.776;2022-07-29T02:07:04;99529.44;;;18.47;54.93
38939;BME280;24211;49.980;19.776;2022-07-29T02:09:35;99535.63;;;18.27;55.88
38939;BME280;24211;49.980;19.776;2022-07-29T02:12:09;99528.31;;;18.33;55.37
38939;BME280;24211;49.980;19.776;2022-07-29T02:14:51;99516.41;;;18.28;55.08
38939;BME280;24211;49.980;19.776;2022-07-29T02:17:35;99523.91;;;17.96;57.33
38939;BME280;24211;49.980;19.776;2022-07-29T02:20:08;99518.03;;;18.19;55.22
38939;BME280;24211;49.980;19.776;2022-07-29T02:22:40;99510.16;;;18.03;56.31
38939;BME280;24211;49.980;19.776;2022-07-29T02:25:08;99514.22;;;18.00;56.14
38939;BME280;24211;49.980;19.776;2022-07-29T02:27:42;99513.09;;;17.91;56.48
38939;BME280;24211;49.980;19.776;2022-07-29T02:30:11;99509.34;;;18.02;55.96
38939;BME280;24211;49.980;19.776;2022-07-29T02:32:41;99507.19;;;18.09;55.01
38939;BME280;24211;49.980;19.776;2022-07-29T02:35:12;99513.13;;;18.06;55.65
38939;BME280;24211;49.980;19.776;2022-07-29T02:37:43;99514.22;;;18.00;55.58
38939;BME280;24211;49.980;19.776;2022-07-29T02:40:13;99516.94;;;18.05;54.87
38939;BME280;24211;49.980;19.776;2022-07-29T02:42:44;99516.38;;;17.98;55.38
38939;BME280;24211;49.980;19.776;2022-07-29T02:45:13;99516.63;;;18.02;54.91
38939;BME280;24211;49.980;19.776;2022-07-29T02:47:47;99514.22;;;18.00;55.11
38939;BME280;24211;49.980;19.776;2022-07-29T02:50:31;99517.16;;;17.94;55.64
38939;BME280;24211;49.980;19.776;2022-07-29T02:53:24;99511.19;;;17.87;55.88
38939;BME280;24211;49.980;19.776;2022-07-29T02:55:59;99505.25;;;17.90;54.95
38939;BME280;24211;49.980;19.776;2022-07-29T02:58:41;99498.22;;;17.84;55.88
38939;BME280;24211;49.980;19.776;2022-07-29T03:01:25;99503.88;;;17.77;55.74
38939;BME280;24211;49.980;19.776;2022-07-29T03:04:00;99499.28;;;17.78;55.62
38939;BME280;24211;49.980;19.776;2022-07-29T03:06:32;99506.00;;;17.65;56.21
38939;BME280;24211;49.980;19.776;2022-07-29T03:09:07;99507.91;;;17.70;55.99
38939;BME280;24211;49.980;19.776;2022-07-29T03:11:42;99504.97;;;17.71;55.58
38939;BME280;24211;49.980;19.776;2022-07-29T03:14:18;99512.78;;;17.73;55.25
38939;BME280;24211;49.980;19.776;2022-07-29T03:16:49;99507.38;;;17.73;55.17
38939;BME280;24211;49.980;19.776;2022-07-29T03:19:19;99503.31;;;17.70;55.15
38939;BME280;24211;49.980;19.776;2022-07-29T03:21:47;99506.81;;;17.66;55.29
38939;BME280;24211;49.980;19.776;2022-07-29T03:24:34;99515.19;;;17.69;55.03
38939;BME280;24211;49.980;19.776;2022-07-29T03:27:03;99514.91;;;17.60;55.26
38939;BME280;24211;49.980;19.776;2022-07-29T03:29:31;99517.31;;;17.57;55.43
38939;BME280;24211;49.980;19.776;2022-07-29T03:32:04;99510.25;;;17.51;55.69
38939;BME280;24211;49.980;19.776;2022-07-29T03:34:36;99512.94;;;17.46;56.10
38939;BME280;24211;49.980;19.776;2022-07-29T03:37:05;99507.03;;;17.49;55.74
38939;BME280;24211;49.980;19.776;2022-07-29T03:39:38;99508.63;;;17.50;55.74
38939;BME280;24211;49.980;19.776;2022-07-29T03:42:11;99509.69;;;17.44;55.79
38939;BME280;24211;49.980;19.776;2022-07-29T03:44:44;99510.75;;;17.43;55.82
38939;BME280;24211;49.980;19.776;2022-07-29T03:47:14;99515.91;;;17.44;55.88
38939;BME280;24211;49.980;19.776;2022-07-29T03:49:48;99517.00;;;17.48;55.83
38939;BME280;24211;49.980;19.776;2022-07-29T03:52:18;99529.41;;;17.49;55.89
38939;BME280;24211;49.980;19.776;2022-07-29T03:54:45;99524.66;;;17.56;55.46
38939;BME280;24211;49.980;19.776;2022-07-29T03:57:15;99523.03;;;17.66;54.86
38939;BME280;24211;49.980;19.776;2022-07-29T03:59:44;99533.59;;;17.72;54.59
38939;BME280;24211;49.980;19.776;2022-07-29T04:02:12;99526.59;;;17.76;54.81
38939;BME280;24211;49.980;19.776;2022-07-29T04:04:43;99534.16;;;17.79;56.51
38939;BME280;24211;49.980;19.776;2022-07-29T04:07:15;99530.91;;;17.77;57.38
38939;BME280;24211;49.980;19.776;2022-07-29T04:09:42;99526.03;;;17.74;56.99
38939;BME280;24211;49.980;19.776;2022-07-29T04:12:10;99525.00;;;17.90;55.63
38939;BME280;24211;49.980;19.776;2022-07-29T04:14:37;99524.47;;;17.88;58.79
38939;BME280;24211;49.980;19.776;2022-07-29T04:17:05;99524.22;;;18.00;59.01
38939;BME280;24211;49.980;19.776;2022-07-29T04:19:32;99526.13;;;18.14;57.53
38939;BME280;24211;49.980;19.776;2022-07-29T04:22:01;99522.09;;;18.22;57.57
38939;BME280;24211;49.980;19.776;2022-07-29T04:24:29;99525.06;;;18.30;56.35
38939;BME280;24211;49.980;19.776;2022-07-29T04:26:56;99524.28;;;18.45;56.91
38939;BME280;24211;49.980;19.776;2022-07-29T04:29:24;99524.56;;;18.54;55.71
38939;BME280;24211;49.980;19.776;2022-07-29T04:31:51;99518.59;;;18.67;55.91
38939;BME280;24211;49.980;19.776;2022-07-29T04:34:18;99518.59;;;18.77;55.48
38939;BME280;24211;49.980;19.776;2022-07-29T04:36:46;99513.69;;;18.89;55.75
38939;BME280;24211;49.980;19.776;2022-07-29T04:39:14;99509.84;;;19.05;55.18
38939;BME280;24211;49.980;19.776;2022-07-29T04:41:49;99506.56;;;19.18;55.40
38939;BME280;24211;49.980;19.776;2022-07-29T04:44:21;99510.63;;;19.26;54.88
38939;BME280;24211;49.980;19.776;2022-07-29T04:46:55;99505.94;;;19.46;54.43
38939;BME280;24211;49.980;19.776;2022-07-29T04:49:22;99500.47;;;19.62;53.94
38939;BME280;24211;49.980;19.776;2022-07-29T04:51:50;99497.16;;;19.75;53.60
38939;BME280;24211;49.980;19.776;2022-07-29T04:54:17;99490.00;;;19.89;53.32
38939;BME280;24211;49.980;19.776;2022-07-29T04:56:45;99496.16;;;20.04;52.92
38939;BME280;24211;49.980;19.776;2022-07-29T04:59:13;99496.31;;;20.18;52.64
38939;BME280;24211;49.980;19.776;2022-07-29T05:01:41;99491.09;;;20.32;52.32
38939;BME280;24211;49.980;19.776;2022-07-29T05:04:08;99494.25;;;20.44;51.88
38939;BME280;24211;49.980;19.776;2022-07-29T05:06:36;99489.78;;;20.58;51.55
38939;BME280;24211;49.980;19.776;2022-07-29T05:09:03;99494.75;;;20.74;51.18
38939;BME280;24211;49.980;19.776;2022-07-29T05:11:30;99488.88;;;20.91;50.75
38939;BME280;24211;49.980;19.776;2022-07-29T05:13:57;99494.47;;;21.05;50.37
38939;BME280;24211;49.980;19.776;2022-07-29T05:16:25;99495.91;;;21.21;49.79
38939;BME280;24211;49.980;19.776;2022-07-29T05:18:52;99493.53;;;21.38;49.52
38939;BME280;24211;49.980;19.776;2022-07-29T05:21:20;99491.75;;;21.52;49.34
38939;BME280;24211;49.980;19.776;2022-07-29T05:23:47;99496.19;;;21.67;49.04
38939;BME280;24211;49.980;19.776;2022-07-29T05:26:14;99488.06;;;21.85;48.67
38939;BME280;24211;49.980;19.776;2022-07-29T05:28:41;99488.25;;;22.07;48.10
38939;BME280;24211;49.980;19.776;2022-07-29T05:31:09;99492.06;;;22.25;47.27
38939;BME280;24211;49.980;19.776;2022-07-29T05:33:36;99488.28;;;22.40;46.87
38939;BME280;24211;49.980;19.776;2022-07-29T05:36:04;99487.53;;;22.53;46.61
38939;BME280;24211;49.980;19.776;2022-07-29T05:38:36;99478.09;;;22.64;46.20
38939;BME280;24211;49.980;19.776;2022-07-29T05:41:04;99486.00;;;22.79;45.86
38939;BME280;24211;49.980;19.776;2022-07-29T05:43:32;99485.41;;;22.96;45.38
38939;BME280;24211;49.980;19.776;2022-07-29T05:45:59;99482.00;;;23.04;45.36
38939;BME280;24211;49.980;19.776;2022-07-29T05:48:27;99483.84;;;23.22;45.21
38939;BME280;24211;49.980;19.776;2022-07-29T05:50:55;99478.59;;;23.39;45.12
38939;BME280;24211;49.980;19.776;2022-07-29T05:53:23;99488.28;;;23.59;44.71
38939;BME280;24211;49.980;19.776;2022-07-29T05:55:51;99490.66;;;23.74;44.59
38939;BME280;24211;49.980;19.776;2022-07-29T05:58:19;99481.28;;;24.02;43.87
38939;BME280;24211;49.980;19.776;2022-07-29T06:00:47;99487.28;;;24.26;42.79
38939;BME280;24211;49.980;19.776;2022-07-29T06:03:14;99489.66;;;24.41;42.76
38939;BME280;24211;49.980;19.776;2022-07-29T06:05:42;99483.94;;;24.51;42.50
38939;BME280;24211;49.980;19.776;2022-07-29T06:08:10;99487.38;;;24.65;42.28
38939;BME280;24211;49.980;19.776;2022-07-29T06:10:37;99481.88;;;24.79;42.28
38939;BME280;24211;49.980;19.776;2022-07-29T06:13:05;99473.44;;;24.98;41.65
38939;BME280;24211;49.980;19.776;2022-07-29T06:15:32;99476.22;;;25.15;41.11
38939;BME280;24211;49.980;19.776;2022-07-29T06:18:00;99477.53;;;25.26;41.42
38939;BME280;24211;49.980;19.776;2022-07-29T06:20:29;99480.81;;;25.37;41.13
38939;BME280;24211;49.980;19.776;2022-07-29T06:22:58;99476.00;;;25.42;40.88
38939;BME280;24211;49.980;19.776;2022-07-29T06:25:27;99481.47;;;25.42;40.59
38939;BME280;24211;49.980;19.776;2022-07-29T06:27:57;99479.28;;;25.61;40.34
38939;BME280;24211;49.980;19.776;2022-07-29T06:30:25;99479.94;;;25.75;40.12
38939;BME280;24211;49.980;19.776;2022-07-29T06:32:53;99477.72;;;25.94;39.75
38939;BME280;24211;49.980;19.776;2022-07-29T06:35:21;99479.00;;;25.88;39.16
38939;BME280;24211;49.980;19.776;2022-07-29T06:38:09;99482.38;;;26.03;39.31
38939;BME280;24211;49.980;19.776;2022-07-29T06:40:57;99491.59;;;26.07;39.50
38939;BME280;24211;49.980;19.776;2022-07-29T06:43:36;99485.47;;;26.18;38.60
38939;BME280;24211;49.980;19.776;2022-07-29T06:46:21;99484.50;;;26.40;38.64
38939;BME280;24211;49.980;19.776;2022-07-29T06:48:50;99481.59;;;26.45;38.82
38939;BME280;24211;49.980;19.776;2022-07-29T06:51:19;99492.22;;;26.55;38.35
38939;BME280;24211;49.980;19.776;2022-07-29T06:53:51;99479.75;;;26.75;37.51
38939;BME280;24211;49.980;19.776;2022-07-29T06:56:39;99482.91;;;27.02;37.65
38939;BME280;24211;49.980;19.776;2022-07-29T06:59:10;99481.19;;;26.89;37.79
38939;BME280;24211;49.980;19.776;2022-07-29T07:01:41;99479.63;;;27.17;37.96
38939;BME280;24211;49.980;19.776;2022-07-29T07:04:09;99476.47;;;27.36;37.46
38939;BME280;24211;49.980;19.776;2022-07-29T07:06:37;99469.63;;;27.51;37.38
38939;BME280;24211;49.980;19.776;2022-07-29T07:09:06;99468.72;;;27.38;37.11
38939;BME280;24211;49.980;19.776;2022-07-29T07:11:33;99470.72;;;27.20;37.47
38939;BME280;24211;49.980;19.776;2022-07-29T07:14:02;99463.47;;;27.54;37.04
38939;BME280;24211;49.980;19.776;2022-07-29T07:16:31;99461.34;;;27.80;37.03
38939;BME280;24211;49.980;19.776;2022-07-29T07:19:00;99453.13;;;28.01;36.28
38939;BME280;24211;49.980;19.776;2022-07-29T07:21:27;99455.72;;;27.97;36.75
38939;BME280;24211;49.980;19.776;2022-07-29T07:23:57;99457.47;;;28.22;36.16
38939;BME280;24211;49.980;19.776;2022-07-29T07:26:25;99457.81;;;28.00;36.62
38939;BME280;24211;49.980;19.776;2022-07-29T07:28:53;99464.16;;;27.92;36.46
38939;BME280;24211;49.980;19.776;2022-07-29T07:31:20;99452.44;;;28.24;36.38
38939;BME280;24211;49.980;19.776;2022-07-29T07:33:47;99459.19;;;28.27;36.34
38939;BME280;24211;49.980;19.776;2022-07-29T07:36:14;99456.75;;;28.46;35.95
38939;BME280;24211;49.980;19.776;2022-07-29T07:38:42;99455.09;;;28.66;35.54
38939;BME280;24211;49.980;19.776;2022-07-29T07:41:09;99455.25;;;28.48;35.75
38939;BME280;24211;49.980;19.776;2022-07-29T07:43:36;99454.44;;;28.69;36.04
38939;BME280;24211;49.980;19.776;2022-07-29T07:46:04;99451.03;;;28.84;35.99
38939;BME280;24211;49.980;19.776;2022-07-29T07:48:32;99454.44;;;28.69;35.86
38939;BME280;24211;49.980;19.776;2022-07-29T07:51:02;99456.63;;;28.87;35.64
38939;BME280;24211;49.980;19.776;2022-07-29T07:53:29;99463.09;;;29.15;35.07
38939;BME280;24211;49.980;19.776;2022-07-29T07:55:58;99463.22;;;29.43;34.90
38939;BME280;24211;49.980;19.776;2022-07-29T07:58:42;99459.56;;;29.27;35.05
38939;BME280;24211;49.980;19.776;2022-07-29T08:01:09;99461.75;;;29.34;34.66
38939;BME280;24211;49.980;19.776;2022-07-29T08:03:37;99470.09;;;29.37;34.28
38939;BME280;24211;49.980;19.776;2022-07-29T08:06:06;99462.06;;;29.56;34.12
38939;BME280;24211;49.980;19.776;2022-07-29T08:08:33;99461.78;;;29.73;33.86
38939;BME280;24211;49.980;19.776;2022-07-29T08:11:01;99460.84;;;29.94;33.85
38939;BME280;24211;49.980;19.776;2022-07-29T08:13:37;99454.66;;;29.97;33.81
38939;BME280;24211;49.980;19.776;2022-07-29T08:16:07;99452.84;;;30.16;33.58
38939;BME280;24211;49.980;19.776;2022-07-29T08:18:44;99450.31;;;29.84;34.10
38939;BME280;24211;49.980;19.776;2022-07-29T08:21:13;99446.88;;;29.74;34.59
38939;BME280;24211;49.980;19.776;2022-07-29T08:23:43;99448.81;;;29.86;34.28
38939;BME280;24211;49.980;19.776;2022-07-29T08:26:27;99445.50;;;29.68;34.67
38939;BME280;24211;49.980;19.776;2022-07-29T08:28:54;99458.97;;;29.58;35.08
38939;BME280;24211;49.980;19.776;2022-07-29T08:31:21;99454.91;;;29.92;34.53
38939;BME280;24211;49.980;19.776;2022-07-29T08:33:48;99450.56;;;30.46;33.80
38939;BME280;24211;49.980;19.776;2022-07-29T08:36:16;99450.56;;;30.46;33.54
38939;BME280;24211;49.980;19.776;2022-07-29T08:38:43;99455.94;;;30.70;33.07
38939;BME280;24211;49.980;19.776;2022-07-29T08:41:10;99446.13;;;30.57;33.20
38939;BME280;24211;49.980;19.776;2022-07-29T08:43:40;99450.13;;;30.44;33.56
38939;BME280;24211;49.980;19.776;2022-07-29T08:46:08;99447.38;;;30.44;33.87
38939;BME280;24211;49.980;19.776;2022-07-29T08:48:36;99436.94;;;30.96;33.15
38939;BME280;24211;49.980;19.776;2022-07-29T08:51:06;99439.69;;;31.12;33.08
38939;BME280;24211;49.980;19.776;2022-07-29T08:53:34;99441.44;;;30.89;33.40
38939;BME280;24211;49.980;19.776;2022-07-29T08:56:02;99433.13;;;31.36;32.80
38939;BME280;24211;49.980;19.776;2022-07-29T08:58:33;99441.03;;;31.02;33.04
38939;BME280;24211;49.980;19.776;2022-07-29T09:01:06;99435.31;;;31.27;33.06
38939;BME280;24211;49.980;19.776;2022-07-29T09:03:40;99434.41;;;31.73;32.44
38939;BME280;24211;49.980;19.776;2022-07-29T09:06:07;99434.25;;;31.66;32.35
38939;BME280;24211;49.980;19.776;2022-07-29T09:08:35;99430.69;;;32.00;31.90
38939;BME280;24211;49.980;19.776;2022-07-29T09:11:02;99415.91;;;32.12;31.30
38939;BME280;24211;49.980;19.776;2022-07-29T09:13:31;99424.31;;;31.61;32.01
38939;BME280;24211;49.980;19.776;2022-07-29T09:15:59;99417.31;;;31.67;32.35
38939;BME280;24211;49.980;19.776;2022-07-29T09:18:44;99426.13;;;31.92;31.63
38939;BME280;24211;49.980;19.776;2022-07-29T09:21:17;99414.91;;;32.62;31.18
38939;BME280;24211;49.980;19.776;2022-07-29T09:24:10;99422.59;;;32.30;31.48
38939;BME280;24211;49.980;19.776;2022-07-29T09:26:42;99415.97;;;32.15;31.64
38939;BME280;24211;49.980;19.776;2022-07-29T09:29:15;99409.25;;;32.36;31.02
38939;BME280;24211;49.980;19.776;2022-07-29T09:31:49;99404.38;;;32.29;31.03
38939;BME280;24211;49.980;19.776;2022-07-29T09:34:26;99406.91;;;32.57;30.68
38939;BME280;24211;49.980;19.776;2022-07-29T09:36:55;99405.34;;;32.17;31.66
38939;BME280;24211;49.980;19.776;2022-07-29T09:39:41;99396.03;;;32.90;30.51
38939;BME280;24211;49.980;19.776;2022-07-29T09:42:13;99404.56;;;31.98;31.98
38939;BME280;24211;49.980;19.776;2022-07-29T09:44:47;99391.88;;;31.58;31.84
38939;BME280;24211;49.980;19.776;2022-07-29T09:47:18;99386.66;;;32.11;31.32
38939;BME280;24211;49.980;19.776;2022-07-29T09:49:59;99384.03;;;32.60;30.66
38939;BME280;24211;49.980;19.776;2022-07-29T09:52:29;99385.19;;;32.59;30.74
38939;BME280;24211;49.980;19.776;2022-07-29T09:55:08;99387.88;;;32.33;31.48
38939;BME280;24211;49.980;19.776;2022-07-29T09:57:40;99384.91;;;32.45;31.47
38939;BME280;24211;49.980;19.776;2022-07-29T10:00:11;99375.81;;;32.44;31.16
38939;BME280;24211;49.980;19.776;2022-07-29T10:02:41;99387.09;;;31.75;32.05
38939;BME280;24211;49.980;19.776;2022-07-29T10:05:26;99371.38;;;32.40;31.29
38939;BME280;24211;49.980;19.776;2022-07-29T10:08:03;99366.41;;;32.49;30.97
38939;BME280;24211;49.980;19.776;2022-07-29T10:10:34;99376.94;;;31.63;31.96
38939;BME280;24211;49.980;19.776;2022-07-29T10:13:07;99361.66;;;32.26;31.48
38939;BME280;24211;49.980;19.776;2022-07-29T10:15:44;99366.13;;;32.54;30.96
38939;BME280;24211;49.980;19.776;2022-07-29T10:18:14;99368.47;;;32.52;31.16
38939;BME280;24211;49.980;19.776;2022-07-29T10:20:44;99364.84;;;32.70;30.54
38939;BME280;24211;49.980;19.776;2022-07-29T10:23:12;99369.69;;;32.77;30.21
38939;BME280;24211;49.980;19.776;2022-07-29T10:25:39;99368.47;;;32.52;30.84
38939;BME280;24211;49.980;19.776;2022-07-29T10:28:12;99369.81;;;32.61;30.65
38939;BME280;24211;49.980;19.776;2022-07-29T10:30:44;99365.88;;;32.85;30.46
38939;BME280;24211;49.980;19.776;2022-07-29T10:36:15;99365.00;;;32.36;30.46
38939;BME280;24211;49.980;19.776;2022-07-29T10:39:27;99356.75;;;31.78;32.56
38939;BME280;24211;49.980;19.776;2022-07-29T10:42:23;99359.53;;;33.07;30.69
38939;BME280;24211;49.980;19.776;2022-07-29T10:45:02;99356.44;;;33.12;30.30
38939;BME280;24211;49.980;19.776;2022-07-29T10:47:31;99351.47;;;32.30;31.34
38939;BME280;24211;49.980;19.776;2022-07-29T10:50:05;99348.59;;;32.69;31.05
38939;BME280;24211;49.980;19.776;2022-07-29T10:52:54;99335.63;;;32.73;30.92
38939;BME280;24211;49.980;19.776;2022-07-29T10:55:38;99340.84;;;32.78;30.48
38939;BME280;24211;49.980;19.776;2022-07-29T10:58:21;99339.66;;;32.79;30.80
38939;BME280;24211;49.980;19.776;2022-07-29T11:00:54;99337.84;;;32.64;30.96
38939;BME280;24211;49.980;19.776;2022-07-29T11:03:44;99334.38;;;32.25;31.52
38939;BME280;24211;49.980;19.776;2022-07-29T11:06:17;99332.66;;;32.40;31.49
38939;BME280;24211;49.980;19.776;2022-07-29T11:09:18;99337.94;;;32.25;31.30
38939;BME280;24211;49.980;19.776;2022-07-29T11:12:02;99345.53;;;31.90;32.08
38939;BME280;24211;49.980;19.776;2022-07-29T11:17:19;99338.75;;;32.49;31.03
38939;BME280;24211;49.980;19.776;2022-07-29T11:19:47;99334.03;;;32.98;30.76
38939;BME280;24211;49.980;19.776;2022-07-29T11:22:35;99339.66;;;32.79;30.88
38939;BME280;24211;49.980;19.776;2022-07-29T11:25:16;99337.94;;;32.71;30.83
38939;BME280;24211;49.980;19.776;2022-07-29T11:27:47;99327.66;;;33.20;30.18
38939;BME280;24211;49.980;19.776;2022-07-29T11:30:14;99323.41;;;33.89;29.42
38939;BME280;24211;49.980;19.776;2022-07-29T11:32:44;99319.22;;;33.39;29.97
38939;BME280;24211;49.980;19.776;2022-07-29T11:35:21;99315.47;;;33.54;29.87
38939;BME280;24211;49.980;19.776;2022-07-29T11:38:26;99301.13;;;34.15;28.89
38939;BME280;24211;49.980;19.776;2022-07-29T11:43:57;99298.69;;;34.07;28.89
38939;BME280;24211;49.980;19.776;2022-07-29T11:46:49;99295.19;;;34.57;28.13
38939;BME280;24211;49.980;19.776;2022-07-29T11:49:26;99296.94;;;33.03;29.98
38939;BME280;24211;49.980;19.776;2022-07-29T11:51:59;99303.78;;;33.68;29.57
38939;BME280;24211;49.980;19.776;2022-07-29T11:54:51;99301.44;;;34.47;28.91
38939;BME280;24211;49.980;19.776;2022-07-29T11:57:25;99303.09;;;33.78;29.94
38939;BME280;24211;49.980;19.776;2022-07-29T12:00:07;99296.53;;;34.30;29.12
38939;BME280;24211;49.980;19.776;2022-07-29T12:02:43;99294.03;;;34.18;28.84
38939;BME280;24211;49.980;19.776;2022-07-29T12:05:15;99297.28;;;33.90;28.81
38939;BME280;24211;49.980;19.776;2022-07-29T12:08:16;99292.63;;;33.98;29.24
38939;BME280;24211;49.980;19.776;2022-07-29T12:10:49;99286.16;;;33.87;29.58
38939;BME280;24211;49.980;19.776;2022-07-29T12:13:19;99289.19;;;33.12;31.06
38939;BME280;24211;49.980;19.776;2022-07-29T12:15:57;99282.28;;;33.95;29.68
38939;BME280;24211;49.980;19.776;2022-07-29T12:18:27;99274.53;;;34.55;28.89
38939;BME280;24211;49.980;19.776;2022-07-29T12:21:02;99280.75;;;33.34;30.18
38939;BME280;24211;49.980;19.776;2022-07-29T12:23:34;99276.06;;;33.68;29.60
38939;BME280;24211;49.980;19.776;2022-07-29T12:26:05;99263.78;;;34.06;28.69
38939;BME280;24211;49.980;19.776;2022-07-29T12:28:40;99282.59;;;33.23;29.71
38939;BME280;24211;49.980;19.776;2022-07-29T12:31:14;99270.78;;;33.56;29.77
38939;BME280;24211;49.980;19.776;2022-07-29T12:34:02;99269.00;;;33.74;29.79
38939;BME280;24211;49.980;19.776;2022-07-29T12:36:29;99268.50;;;34.02;28.43
38939;BME280;24211;49.980;19.776;2022-07-29T12:38:57;99265.91;;;34.19;28.39
38939;BME280;24211;49.980;19.776;2022-07-29T12:41:24;99264.00;;;34.31;28.51
38939;BME280;24211;49.980;19.776;2022-07-29T12:43:54;99267.91;;;33.52;29.78
38939;BME280;24211;49.980;19.776;2022-07-29T12:46:22;99250.72;;;33.70;29.90
38939;BME280;24211;49.980;19.776;2022-07-29T12:48:54;99241.75;;;34.20;28.87
38939;BME280;24211;49.980;19.776;2022-07-29T12:51:30;99245.81;;;34.33;28.64
38939;BME280;24211;49.980;19.776;2022-07-29T12:54:12;99239.50;;;34.36;28.31
38939;BME280;24211;49.980;19.776;2022-07-29T12:56:44;99255.97;;;34.15;28.55
38939;BME280;24211;49.980;19.776;2022-07-29T12:59:18;99249.56;;;33.71;28.86
38939;BME280;24211;49.980;19.776;2022-07-29T13:01:49;99248.28;;;33.65;28.97
38939;BME280;24211;49.980;19.776;2022-07-29T13:04:31;99249.84;;;33.62;28.75
38939;BME280;24211;49.980;19.776;2022-07-29T13:07:06;99248.59;;;33.93;28.44
38939;BME280;24211;49.980;19.776;2022-07-29T13:09:45;99225.88;;;34.17;28.27
38939;BME280;24211;49.980;19.776;2022-07-29T13:12:14;99238.31;;;33.93;28.32
38939;BME280;24211;49.980;19.776;2022-07-29T13:14:48;99236.66;;;33.85;29.38
38939;BME280;24211;49.980;19.776;2022-07-29T13:17:21;99237.50;;;33.93;29.08
38939;BME280;24211;49.980;19.776;2022-07-29T13:20:08;99229.66;;;34.02;29.03
38939;BME280;24211;49.980;19.776;2022-07-29T13:22:41;99233.84;;;33.48;29.30
38939;BME280;24211;49.980;19.776;2022-07-29T13:25:11;99237.63;;;33.33;29.59
38939;BME280;24211;49.980;19.776;2022-07-29T13:27:39;99237.41;;;33.16;29.79
38939;BME280;24211;49.980;19.776;2022-07-29T13:30:09;99226.47;;;33.30;29.52
38939;BME280;24211;49.980;19.776;2022-07-29T13:32:38;99217.06;;;32.75;30.22
38939;BME280;24211;49.980;19.776;2022-07-29T13:35:07;99219.78;;;32.49;30.74
38939;BME280;24211;49.980;19.776;2022-07-29T13:37:36;99220.09;;;32.44;30.81
38939;BME280;24211;49.980;19.776;2022-07-29T13:40:08;99209.91;;;32.74;30.32